sensor_id;sensor_type;location;lat;lon;timestamp;temperature;humidity
76878;DHT22;65843;50.692;12.844;2023-03-23T00:00:28;20.00;53.20
76878;DHT22;65843;50.692;12.844;2023-03-23T00:01:29;20.00;52.80
76878;DHT22;65843;50.692;12.844;2023-03-23T00:02:31;20.00;53.00
76878;DHT22;65843;50.692;12.844;2023-03-23T00:03:39;20.00;53.00
76878;DHT22;65843;50.692;12.844;2023-03-23T00:04:40;20.00;53.10
76878;DHT22;65843;50.692;12.844;2023-03-23T00:05:43;20.00;53.50
76878;DHT22;65843;50.692;12.844;2023-03-23T00:06:50;20.00;53.20
76878;DHT22;65843;50.692;12.844;2023-03-23T00:07:51;20.00;53.40
76878;DHT22;65843;50.692;12.844;2023-03-23T00:08:53;20.00;53.10
76878;DHT22;65843;50.692;12.844;2023-03-23T00:09:59;20.00;53.40
76878;DHT22;65843;50.692;12.844;2023-03-23T00:11:06;20.00;53.60
76878;DHT22;65843;50.692;12.844;2023-03-23T00:12:08;20.00;53.50
76878;DHT22;65843;50.692;12.844;2023-03-23T00:13:09;20.00;53.10
76878;DHT22;65843;50.692;12.844;2023-03-23T00:14:11;20.00;53.30
76878;DHT22;65843;50.692;12.844;2023-03-23T00:15:13;20.00;53.40
76878;DHT22;65843;50.692;12.844;2023-03-23T00:16:18;20.00;53.40
76878;DHT22;65843;50.692;12.844;2023-03-23T00:17:19;20.00;53.60
76878;DHT22;65843;50.692;12.844;2023-03-23T00:18:20;20.00;53.30
76878;DHT22;65843;50.692;12.844;2023-03-23T00:19:22;20.10;53.30
76878;DHT22;65843;50.692;12.844;2023-03-23T00:20:23;20.00;53.50
76878;DHT22;65843;50.692;12.844;2023-03-23T00:21:25;20.00;53.40
76878;DHT22;65843;50.692;12.844;2023-03-23T00:22:33;20.00;53.30
76878;DHT22;65843;50.692;12.844;2023-03-23T00:23:38;20.10;53.40
76878;DHT22;65843;50.692;12.844;2023-03-23T00:24:40;20.00;53.50
76878;DHT22;65843;50.692;12.844;2023-03-23T00:25:41;20.10;53.70
76878;DHT22;65843;50.692;12.844;2023-03-23T00:26:43;20.00;53.50
76878;DHT22;65843;50.692;12.844;2023-03-23T00:27:44;20.10;53.40
76878;DHT22;65843;50.692;12.844;2023-03-23T00:28:46;20.10;54.00
76878;DHT22;65843;50.692;12.844;2023-03-23T00:29:50;20.10;54.50
76878;DHT22;65843;50.692;12.844;2023-03-23T00:30:58;20.10;54.10
76878;DHT22;65843;50.692;12.844;2023-03-23T00:31:59;20.10;53.60
76878;DHT22;65843;50.692;12.844;2023-03-23T00:33:00;20.10;53.90
76878;DHT22;65843;50.692;12.844;2023-03-23T00:34:03;20.10;53.80
76878;DHT22;65843;50.692;12.844;2023-03-23T00:35:04;20.10;54.10
76878;DHT22;65843;50.692;12.844;2023-03-23T00:36:07;20.10;53.20
76878;DHT22;65843;50.692;12.844;2023-03-23T00:37:09;20.10;53.70
76878;DHT22;65843;50.692;12.844;2023-03-23T00:38:11;20.10;54.00
76878;DHT22;65843;50.692;12.844;2023-03-23T00:39:13;20.10;53.70
76878;DHT22;65843;50.692;12.844;2023-03-23T00:40:16;20.10;53.80
76878;DHT22;65843;50.692;12.844;2023-03-23T00:41:18;20.10;53.90
76878;DHT22;65843;50.692;12.844;2023-03-23T00:42:18;20.10;53.60
76878;DHT22;65843;50.692;12.844;2023-03-23T00:43:19;20.10;53.70
76878;DHT22;65843;50.692;12.844;2023-03-23T00:44:21;20.10;53.70
76878;DHT22;65843;50.692;12.844;2023-03-23T00:45:24;20.10;53.90
76878;DHT22;65843;50.692;12.844;2023-03-23T00:46:25;20.10;53.30
76878;DHT22;65843;50.692;12.844;2023-03-23T00:47:27;20.10;53.50
76878;DHT22;65843;50.692;12.844;2023-03-23T00:48:28;20.10;53.40
76878;DHT22;65843;50.692;12.844;2023-03-23T00:49:29;20.10;54.00
76878;DHT22;65843;50.692;12.844;2023-03-23T00:50:31;20.10;54.00
76878;DHT22;65843;50.692;12.844;2023-03-23T00:51:32;20.10;53.00
76878;DHT22;65843;50.692;12.844;2023-03-23T00:52:33;20.10;53.80
76878;DHT22;65843;50.692;12.844;2023-03-23T00:53:33;20.10;53.00
76878;DHT22;65843;50.692;12.844;2023-03-23T00:54:34;20.10;53.90
76878;DHT22;65843;50.692;12.844;2023-03-23T00:55:39;20.10;53.20
76878;DHT22;65843;50.692;12.844;2023-03-23T00:56:40;20.10;53.60
76878;DHT22;65843;50.692;12.844;2023-03-23T00:57:41;20.10;53.70
76878;DHT22;65843;50.692;12.844;2023-03-23T00:58:42;20.10;53.80
76878;DHT22;65843;50.692;12.844;2023-03-23T00:59:43;20.10;53.80
76878;DHT22;65843;50.692;12.844;2023-03-23T01:00:45;20.10;54.00
76878;DHT22;65843;50.692;12.844;2023-03-23T01:01:46;20.10;53.70
76878;DHT22;65843;50.692;12.844;2023-03-23T01:02:47;20.20;53.70
76878;DHT22;65843;50.692;12.844;2023-03-23T01:03:48;20.20;53.60
76878;DHT22;65843;50.692;12.844;2023-03-23T01:04:50;20.20;53.80
76878;DHT22;65843;50.692;12.844;2023-03-23T01:05:52;20.20;54.10
76878;DHT22;65843;50.692;12.844;2023-03-23T01:06:53;20.20;53.80
76878;DHT22;65843;50.692;12.844;2023-03-23T01:07:55;20.20;54.00
76878;DHT22;65843;50.692;12.844;2023-03-23T01:08:57;20.20;53.90
76878;DHT22;65843;50.692;12.844;2023-03-23T01:09:58;20.20;54.00
76878;DHT22;65843;50.692;12.844;2023-03-23T01:11:02;20.20;54.10
76878;DHT22;65843;50.692;12.844;2023-03-23T01:12:04;20.20;54.10
76878;DHT22;65843;50.692;12.844;2023-03-23T01:13:05;20.20;54.00
76878;DHT22;65843;50.692;12.844;2023-03-23T01:14:07;20.20;54.00
76878;DHT22;65843;50.692;12.844;2023-03-23T01:15:08;20.20;53.70
76878;DHT22;65843;50.692;12.844;2023-03-23T01:16:09;20.20;53.50
76878;DHT22;65843;50.692;12.844;2023-03-23T01:17:10;20.30;54.20
76878;DHT22;65843;50.692;12.844;2023-03-23T01:18:11;20.20;54.00
76878;DHT22;65843;50.692;12.844;2023-03-23T01:19:12;20.30;54.20
76878;DHT22;65843;50.692;12.844;2023-03-23T01:20:14;20.30;54.00
76878;DHT22;65843;50.692;12.844;2023-03-23T01:21:16;20.30;53.80
76878;DHT22;65843;50.692;12.844;2023-03-23T01:22:17;20.30;54.20
76878;DHT22;65843;50.692;12.844;2023-03-23T01:23:18;20.30;53.60
76878;DHT22;65843;50.692;12.844;2023-03-23T01:24:19;20.30;54.40
76878;DHT22;65843;50.692;12.844;2023-03-23T01:25:20;20.30;54.00
76878;DHT22;65843;50.692;12.844;2023-03-23T01:26:22;20.30;54.20
76878;DHT22;65843;50.692;12.844;2023-03-23T01:27:24;20.30;53.70
76878;DHT22;65843;50.692;12.844;2023-03-23T01:28:25;20.30;54.30
76878;DHT22;65843;50.692;12.844;2023-03-23T01:29:26;20.30;54.00
76878;DHT22;65843;50.692;12.844;2023-03-23T01:30:27;20.30;54.30
76878;DHT22;65843;50.692;12.844;2023-03-23T01:31:28;20.30;54.30
76878;DHT22;65843;50.692;12.844;2023-03-23T01:32:29;20.30;54.40
76878;DHT22;65843;50.692;12.844;2023-03-23T01:33:30;20.30;54.40
76878;DHT22;65843;50.692;12.844;2023-03-23T01:34:31;20.30;54.40
76878;DHT22;65843;50.692;12.844;2023-03-23T01:35:32;20.30;54.90
76878;DHT22;65843;50.692;12.844;2023-03-23T01:36:33;20.30;54.90
76878;DHT22;65843;50.692;12.844;2023-03-23T01:37:34;20.30;54.70
76878;DHT22;65843;50.692;12.844;2023-03-23T01:38:36;20.30;54.80
76878;DHT22;65843;50.692;12.844;2023-03-23T01:39:38;20.30;54.50
76878;DHT22;65843;50.692;12.844;2023-03-23T01:40:39;20.30;53.70
76878;DHT22;65843;50.692;12.844;2023-03-23T01:41:40;20.30;54.90
76878;DHT22;65843;50.692;12.844;2023-03-23T01:42:41;20.30;54.90
76878;DHT22;65843;50.692;12.844;2023-03-23T01:43:55;20.30;55.20
76878;DHT22;65843;50.692;12.844;2023-03-23T01:46:16;20.30;54.90
76878;DHT22;65843;50.692;12.844;2023-03-23T01:47:18;20.30;54.90
76878;DHT22;65843;50.692;12.844;2023-03-23T01:48:27;20.30;55.00
76878;DHT22;65843;50.692;12.844;2023-03-23T01:49:31;20.30;55.50
76878;DHT22;65843;50.692;12.844;2023-03-23T01:50:36;20.30;54.40
76878;DHT22;65843;50.692;12.844;2023-03-23T01:51:47;20.30;55.20
76878;DHT22;65843;50.692;12.844;2023-03-23T01:52:49;20.30;54.40
76878;DHT22;65843;50.692;12.844;2023-03-23T01:53:55;20.30;55.20
76878;DHT22;65843;50.692;12.844;2023-03-23T01:54:57;20.30;55.00
76878;DHT22;65843;50.692;12.844;2023-03-23T01:55:58;20.30;55.50
76878;DHT22;65843;50.692;12.844;2023-03-23T01:57:05;20.30;55.00
76878;DHT22;65843;50.692;12.844;2023-03-23T01:58:07;20.30;55.80
76878;DHT22;65843;50.692;12.844;2023-03-23T01:59:09;20.30;55.10
76878;DHT22;65843;50.692;12.844;2023-03-23T02:00:11;20.40;55.70
76878;DHT22;65843;50.692;12.844;2023-03-23T02:01:15;20.40;55.70
76878;DHT22;65843;50.692;12.844;2023-03-23T02:02:17;20.40;54.40
76878;DHT22;65843;50.692;12.844;2023-03-23T02:03:18;20.40;55.40
76878;DHT22;65843;50.692;12.844;2023-03-23T02:04:20;20.40;55.00
76878;DHT22;65843;50.692;12.844;2023-03-23T02:05:32;20.40;54.10
76878;DHT22;65843;50.692;12.844;2023-03-23T02:06:34;20.40;54.40
76878;DHT22;65843;50.692;12.844;2023-03-23T02:07:35;20.40;55.10
76878;DHT22;65843;50.692;12.844;2023-03-23T02:08:36;20.40;54.90
76878;DHT22;65843;50.692;12.844;2023-03-23T02:09:38;20.40;55.30
76878;DHT22;65843;50.692;12.844;2023-03-23T02:10:39;20.40;55.40
76878;DHT22;65843;50.692;12.844;2023-03-23T02:11:40;20.30;54.80
76878;DHT22;65843;50.692;12.844;2023-03-23T02:12:41;20.30;55.50
76878;DHT22;65843;50.692;12.844;2023-03-23T02:13:43;20.30;55.20
76878;DHT22;65843;50.692;12.844;2023-03-23T02:14:44;20.30;55.80
76878;DHT22;65843;50.692;12.844;2023-03-23T02:15:47;20.30;55.80
76878;DHT22;65843;50.692;12.844;2023-03-23T02:16:54;20.40;55.80
76878;DHT22;65843;50.692;12.844;2023-03-23T02:18:02;20.30;55.30
76878;DHT22;65843;50.692;12.844;2023-03-23T02:27:01;20.30;56.00
76878;DHT22;65843;50.692;12.844;2023-03-23T02:31:30;20.30;56.00
76878;DHT22;65843;50.692;12.844;2023-03-23T02:32:53;20.30;56.50
76878;DHT22;65843;50.692;12.844;2023-03-23T02:35:18;20.40;56.50
76878;DHT22;65843;50.692;12.844;2023-03-23T02:36:23;20.40;56.40
76878;DHT22;65843;50.692;12.844;2023-03-23T02:37:38;20.40;56.50
76878;DHT22;65843;50.692;12.844;2023-03-23T02:39:57;20.40;57.10
76878;DHT22;65843;50.692;12.844;2023-03-23T02:41:02;20.40;57.20
76878;DHT22;65843;50.692;12.844;2023-03-23T02:43:06;20.40;57.40
76878;DHT22;65843;50.692;12.844;2023-03-23T02:44:07;20.50;57.00
76878;DHT22;65843;50.692;12.844;2023-03-23T02:45:10;20.50;58.00
76878;DHT22;65843;50.692;12.844;2023-03-23T02:46:11;20.50;57.20
76878;DHT22;65843;50.692;12.844;2023-03-23T02:47:15;20.50;56.50
76878;DHT22;65843;50.692;12.844;2023-03-23T02:48:18;20.50;57.20
76878;DHT22;65843;50.692;12.844;2023-03-23T02:49:20;20.50;57.20
76878;DHT22;65843;50.692;12.844;2023-03-23T02:50:23;20.50;56.60
76878;DHT22;65843;50.692;12.844;2023-03-23T02:51:25;20.50;57.00
76878;DHT22;65843;50.692;12.844;2023-03-23T02:52:28;20.40;56.50
76878;DHT22;65843;50.692;12.844;2023-03-23T02:53:30;20.40;56.30
76878;DHT22;65843;50.692;12.844;2023-03-23T02:54:34;20.40;56.50
76878;DHT22;65843;50.692;12.844;2023-03-23T02:55:36;20.50;57.00
76878;DHT22;65843;50.692;12.844;2023-03-23T02:56:42;20.50;56.90
76878;DHT22;65843;50.692;12.844;2023-03-23T02:57:44;20.40;56.70
76878;DHT22;65843;50.692;12.844;2023-03-23T02:58:46;20.40;56.10
76878;DHT22;65843;50.692;12.844;2023-03-23T02:59:47;20.40;56.70
76878;DHT22;65843;50.692;12.844;2023-03-23T03:00:51;20.40;56.70
76878;DHT22;65843;50.692;12.844;2023-03-23T03:01:56;20.40;56.60
76878;DHT22;65843;50.692;12.844;2023-03-23T03:02:57;20.40;56.30
76878;DHT22;65843;50.692;12.844;2023-03-23T03:04:00;20.40;56.80
76878;DHT22;65843;50.692;12.844;2023-03-23T03:08:15;20.40;56.00
76878;DHT22;65843;50.692;12.844;2023-03-23T03:09:26;20.40;57.40
76878;DHT22;65843;50.692;12.844;2023-03-23T03:10:37;20.40;57.00
76878;DHT22;65843;50.692;12.844;2023-03-23T03:11:42;20.40;56.70
76878;DHT22;65843;50.692;12.844;2023-03-23T03:12:51;20.40;57.00
76878;DHT22;65843;50.692;12.844;2023-03-23T03:17:17;20.40;58.50
76878;DHT22;65843;50.692;12.844;2023-03-23T03:18:22;20.50;57.60
76878;DHT22;65843;50.692;12.844;2023-03-23T03:20:26;20.50;57.60
76878;DHT22;65843;50.692;12.844;2023-03-23T03:21:30;20.50;57.10
76878;DHT22;65843;50.692;12.844;2023-03-23T03:22:31;20.50;57.20
76878;DHT22;65843;50.692;12.844;2023-03-23T03:23:34;20.50;57.80
76878;DHT22;65843;50.692;12.844;2023-03-23T03:24:36;20.50;57.60
76878;DHT22;65843;50.692;12.844;2023-03-23T03:25:41;20.50;57.40
76878;DHT22;65843;50.692;12.844;2023-03-23T03:26:48;20.50;57.40
76878;DHT22;65843;50.692;12.844;2023-03-23T03:27:50;20.50;56.60
76878;DHT22;65843;50.692;12.844;2023-03-23T03:28:53;20.50;57.80
76878;DHT22;65843;50.692;12.844;2023-03-23T03:29:55;20.50;57.70
76878;DHT22;65843;50.692;12.844;2023-03-23T03:31:00;20.50;56.90
76878;DHT22;65843;50.692;12.844;2023-03-23T03:32:02;20.50;56.90
76878;DHT22;65843;50.692;12.844;2023-03-23T03:33:08;20.50;57.60
76878;DHT22;65843;50.692;12.844;2023-03-23T03:34:09;20.50;56.50
76878;DHT22;65843;50.692;12.844;2023-03-23T03:35:10;20.50;56.60
76878;DHT22;65843;50.692;12.844;2023-03-23T03:36:15;20.50;56.50
76878;DHT22;65843;50.692;12.844;2023-03-23T03:37:17;20.50;57.50
76878;DHT22;65843;50.692;12.844;2023-03-23T03:38:19;20.50;57.20
76878;DHT22;65843;50.692;12.844;2023-03-23T03:39:20;20.50;56.50
76878;DHT22;65843;50.692;12.844;2023-03-23T03:40:22;20.50;57.80
76878;DHT22;65843;50.692;12.844;2023-03-23T03:41:23;20.50;57.70
76878;DHT22;65843;50.692;12.844;2023-03-23T03:42:24;20.50;58.00
76878;DHT22;65843;50.692;12.844;2023-03-23T03:43:25;20.50;58.10
76878;DHT22;65843;50.692;12.844;2023-03-23T03:44:26;20.50;57.90
76878;DHT22;65843;50.692;12.844;2023-03-23T03:45:27;20.50;57.40
76878;DHT22;65843;50.692;12.844;2023-03-23T03:46:28;20.50;57.60
76878;DHT22;65843;50.692;12.844;2023-03-23T03:47:31;20.50;57.60
76878;DHT22;65843;50.692;12.844;2023-03-23T03:48:32;20.50;58.40
76878;DHT22;65843;50.692;12.844;2023-03-23T03:49:33;20.50;58.40
76878;DHT22;65843;50.692;12.844;2023-03-23T03:50:34;20.50;58.10
76878;DHT22;65843;50.692;12.844;2023-03-23T03:51:35;20.50;58.60
76878;DHT22;65843;50.692;12.844;2023-03-23T03:52:37;20.50;58.90
76878;DHT22;65843;50.692;12.844;2023-03-23T03:53:38;20.50;59.00
76878;DHT22;65843;50.692;12.844;2023-03-23T03:54:39;20.50;59.00
76878;DHT22;65843;50.692;12.844;2023-03-23T03:55:41;20.50;58.40
76878;DHT22;65843;50.692;12.844;2023-03-23T03:56:45;20.50;58.80
76878;DHT22;65843;50.692;12.844;2023-03-23T03:57:47;20.50;57.80
76878;DHT22;65843;50.692;12.844;2023-03-23T03:58:49;20.50;58.60
76878;DHT22;65843;50.692;12.844;2023-03-23T03:59:50;20.50;58.40
76878;DHT22;65843;50.692;12.844;2023-03-23T04:00:51;20.50;58.30
76878;DHT22;65843;50.692;12.844;2023-03-23T04:01:53;20.50;56.90
76878;DHT22;65843;50.692;12.844;2023-03-23T04:02:55;20.50;58.60
76878;DHT22;65843;50.692;12.844;2023-03-23T04:03:56;20.50;57.20
76878;DHT22;65843;50.692;12.844;2023-03-23T04:04:57;20.50;58.30
76878;DHT22;65843;50.692;12.844;2023-03-23T04:05:58;20.50;57.70
76878;DHT22;65843;50.692;12.844;2023-03-23T04:07:00;20.50;57.80
76878;DHT22;65843;50.692;12.844;2023-03-23T04:08:02;20.50;57.50
76878;DHT22;65843;50.692;12.844;2023-03-23T04:09:04;20.50;58.00
76878;DHT22;65843;50.692;12.844;2023-03-23T04:10:06;20.50;58.80
76878;DHT22;65843;50.692;12.844;2023-03-23T04:11:08;20.50;59.20
76878;DHT22;65843;50.692;12.844;2023-03-23T04:12:10;20.50;59.00
76878;DHT22;65843;50.692;12.844;2023-03-23T04:13:11;20.50;58.60
76878;DHT22;65843;50.692;12.844;2023-03-23T04:14:12;20.50;59.00
76878;DHT22;65843;50.692;12.844;2023-03-23T04:15:13;20.50;59.20
76878;DHT22;65843;50.692;12.844;2023-03-23T04:16:14;20.50;59.00
76878;DHT22;65843;50.692;12.844;2023-03-23T04:17:17;20.50;58.90
76878;DHT22;65843;50.692;12.844;2023-03-23T04:18:18;20.50;59.00
76878;DHT22;65843;50.692;12.844;2023-03-23T04:19:19;20.50;59.00
76878;DHT22;65843;50.692;12.844;2023-03-23T04:20:20;20.50;59.20
76878;DHT22;65843;50.692;12.844;2023-03-23T04:21:21;20.50;59.30
76878;DHT22;65843;50.692;12.844;2023-03-23T04:22:23;20.50;59.00
76878;DHT22;65843;50.692;12.844;2023-03-23T04:23:31;20.50;59.10
76878;DHT22;65843;50.692;12.844;2023-03-23T04:24:34;20.50;58.50
76878;DHT22;65843;50.692;12.844;2023-03-23T04:25:36;20.50;59.40
76878;DHT22;65843;50.692;12.844;2023-03-23T04:26:37;20.50;59.20
76878;DHT22;65843;50.692;12.844;2023-03-23T04:27:40;20.50;59.30
76878;DHT22;65843;50.692;12.844;2023-03-23T04:28:46;20.50;59.60
76878;DHT22;65843;50.692;12.844;2023-03-23T04:29:47;20.50;59.90
76878;DHT22;65843;50.692;12.844;2023-03-23T04:30:50;20.50;59.90
76878;DHT22;65843;50.692;12.844;2023-03-23T04:31:53;20.50;60.20
76878;DHT22;65843;50.692;12.844;2023-03-23T04:32:56;20.50;60.00
76878;DHT22;65843;50.692;12.844;2023-03-23T04:33:57;20.50;59.90
76878;DHT22;65843;50.692;12.844;2023-03-23T04:35:00;20.50;59.80
76878;DHT22;65843;50.692;12.844;2023-03-23T04:36:01;20.50;59.60
76878;DHT22;65843;50.692;12.844;2023-03-23T04:37:03;20.50;59.60
76878;DHT22;65843;50.692;12.844;2023-03-23T04:38:04;20.50;59.30
76878;DHT22;65843;50.692;12.844;2023-03-23T04:39:04;20.50;59.40
76878;DHT22;65843;50.692;12.844;2023-03-23T04:40:10;20.50;59.60
76878;DHT22;65843;50.692;12.844;2023-03-23T04:41:15;20.50;59.70
76878;DHT22;65843;50.692;12.844;2023-03-23T04:42:16;20.50;59.40
76878;DHT22;65843;50.692;12.844;2023-03-23T04:43:20;20.50;59.40
76878;DHT22;65843;50.692;12.844;2023-03-23T04:44:22;20.50;59.40
76878;DHT22;65843;50.692;12.844;2023-03-23T04:45:23;20.50;59.40
76878;DHT22;65843;50.692;12.844;2023-03-23T04:46:25;20.50;59.60
76878;DHT22;65843;50.692;12.844;2023-03-23T04:47:30;20.50;59.50
76878;DHT22;65843;50.692;12.844;2023-03-23T04:48:32;20.50;59.20
76878;DHT22;65843;50.692;12.844;2023-03-23T04:49:33;20.50;59.60
76878;DHT22;65843;50.692;12.844;2023-03-23T04:50:34;20.50;59.60
76878;DHT22;65843;50.692;12.844;2023-03-23T04:51:35;20.50;59.40
76878;DHT22;65843;50.692;12.844;2023-03-23T04:52:36;20.50;59.50
76878;DHT22;65843;50.692;12.844;2023-03-23T04:53:45;20.50;59.50
76878;DHT22;65843;50.692;12.844;2023-03-23T04:54:46;20.50;59.50
76878;DHT22;65843;50.692;12.844;2023-03-23T04:55:47;20.50;59.60
76878;DHT22;65843;50.692;12.844;2023-03-23T04:56:49;20.50;59.20
76878;DHT22;65843;50.692;12.844;2023-03-23T04:57:50;20.50;59.40
76878;DHT22;65843;50.692;12.844;2023-03-23T04:58:51;20.50;59.00
76878;DHT22;65843;50.692;12.844;2023-03-23T04:59:52;20.50;60.30
76878;DHT22;65843;50.692;12.844;2023-03-23T05:00:53;20.50;59.40
76878;DHT22;65843;50.692;12.844;2023-03-23T05:01:54;20.50;59.70
76878;DHT22;65843;50.692;12.844;2023-03-23T05:02:56;20.50;59.70
76878;DHT22;65843;50.692;12.844;2023-03-23T05:03:57;20.50;59.90
76878;DHT22;65843;50.692;12.844;2023-03-23T05:04:58;20.50;59.80
76878;DHT22;65843;50.692;12.844;2023-03-23T05:06:01;20.50;59.80
76878;DHT22;65843;50.692;12.844;2023-03-23T05:07:02;20.50;59.30
76878;DHT22;65843;50.692;12.844;2023-03-23T05:08:03;20.50;59.20
76878;DHT22;65843;50.692;12.844;2023-03-23T05:09:04;20.60;58.50
76878;DHT22;65843;50.692;12.844;2023-03-23T05:10:06;20.50;58.70
76878;DHT22;65843;50.692;12.844;2023-03-23T05:11:08;20.60;58.70
76878;DHT22;65843;50.692;12.844;2023-03-23T05:12:10;20.50;57.20
76878;DHT22;65843;50.692;12.844;2023-03-23T05:13:11;20.60;59.10
76878;DHT22;65843;50.692;12.844;2023-03-23T05:14:12;20.60;58.20
76878;DHT22;65843;50.692;12.844;2023-03-23T05:15:13;20.50;58.60
76878;DHT22;65843;50.692;12.844;2023-03-23T05:16:15;20.60;58.60
76878;DHT22;65843;50.692;12.844;2023-03-23T05:17:16;20.60;57.80
76878;DHT22;65843;50.692;12.844;2023-03-23T05:18:17;20.60;57.80
76878;DHT22;65843;50.692;12.844;2023-03-23T05:19:18;20.60;57.90
76878;DHT22;65843;50.692;12.844;2023-03-23T05:20:19;20.60;57.70
76878;DHT22;65843;50.692;12.844;2023-03-23T05:21:20;20.60;57.50
76878;DHT22;65843;50.692;12.844;2023-03-23T05:22:22;20.50;57.50
76878;DHT22;65843;50.692;12.844;2023-03-23T05:23:24;20.50;57.20
76878;DHT22;65843;50.692;12.844;2023-03-23T05:24:25;20.50;57.50
76878;DHT22;65843;50.692;12.844;2023-03-23T05:25:26;20.50;57.60
76878;DHT22;65843;50.692;12.844;2023-03-23T05:26:27;20.50;57.60
76878;DHT22;65843;50.692;12.844;2023-03-23T05:27:31;20.50;57.40
76878;DHT22;65843;50.692;12.844;2023-03-23T05:28:33;20.50;57.40
76878;DHT22;65843;50.692;12.844;2023-03-23T05:29:34;20.50;57.30
76878;DHT22;65843;50.692;12.844;2023-03-23T05:30:37;20.50;57.80
76878;DHT22;65843;50.692;12.844;2023-03-23T05:31:38;20.50;57.60
76878;DHT22;65843;50.692;12.844;2023-03-23T05:32:40;20.50;57.10
76878;DHT22;65843;50.692;12.844;2023-03-23T05:33:41;20.50;57.30
76878;DHT22;65843;50.692;12.844;2023-03-23T05:34:42;20.40;57.30
76878;DHT22;65843;50.692;12.844;2023-03-23T05:35:45;20.50;57.40
76878;DHT22;65843;50.692;12.844;2023-03-23T05:36:47;20.40;57.10
76878;DHT22;65843;50.692;12.844;2023-03-23T05:37:48;20.40;57.20
76878;DHT22;65843;50.692;12.844;2023-03-23T05:38:52;20.40;57.40
76878;DHT22;65843;50.692;12.844;2023-03-23T05:39:53;20.30;57.10
76878;DHT22;65843;50.692;12.844;2023-03-23T05:40:58;20.30;56.90
76878;DHT22;65843;50.692;12.844;2023-03-23T05:42:02;20.30;54.90
76878;DHT22;65843;50.692;12.844;2023-03-23T05:43:03;20.30;55.00
76878;DHT22;65843;50.692;12.844;2023-03-23T05:44:04;20.30;53.70
76878;DHT22;65843;50.692;12.844;2023-03-23T05:45:05;20.30;52.40
76878;DHT22;65843;50.692;12.844;2023-03-23T05:46:06;20.10;51.20
76878;DHT22;65843;50.692;12.844;2023-03-23T05:47:08;20.00;50.70
76878;DHT22;65843;50.692;12.844;2023-03-23T05:48:09;19.90;50.50
76878;DHT22;65843;50.692;12.844;2023-03-23T05:49:10;19.80;50.80
76878;DHT22;65843;50.692;12.844;2023-03-23T05:50:11;19.70;50.60
76878;DHT22;65843;50.692;12.844;2023-03-23T05:51:13;19.70;50.40
76878;DHT22;65843;50.692;12.844;2023-03-23T05:52:14;19.50;50.90
76878;DHT22;65843;50.692;12.844;2023-03-23T05:53:15;19.50;49.40
76878;DHT22;65843;50.692;12.844;2023-03-23T05:54:16;19.50;49.60
76878;DHT22;65843;50.692;12.844;2023-03-23T05:55:17;19.40;48.90
76878;DHT22;65843;50.692;12.844;2023-03-23T05:56:18;19.30;49.50
76878;DHT22;65843;50.692;12.844;2023-03-23T05:57:20;19.30;50.00
76878;DHT22;65843;50.692;12.844;2023-03-23T05:58:23;19.20;49.30
76878;DHT22;65843;50.692;12.844;2023-03-23T05:59:24;19.20;48.90
76878;DHT22;65843;50.692;12.844;2023-03-23T06:00:25;19.20;48.60
76878;DHT22;65843;50.692;12.844;2023-03-23T06:01:29;19.10;49.50
76878;DHT22;65843;50.692;12.844;2023-03-23T06:02:31;19.10;49.10
76878;DHT22;65843;50.692;12.844;2023-03-23T06:03:32;19.00;49.50
76878;DHT22;65843;50.692;12.844;2023-03-23T06:04:33;19.00;49.70
76878;DHT22;65843;50.692;12.844;2023-03-23T06:05:34;19.00;52.20
76878;DHT22;65843;50.692;12.844;2023-03-23T06:06:35;19.10;52.20
76878;DHT22;65843;50.692;12.844;2023-03-23T06:07:37;19.10;52.70
76878;DHT22;65843;50.692;12.844;2023-03-23T06:08:41;19.20;52.60
76878;DHT22;65843;50.692;12.844;2023-03-23T06:09:43;19.30;54.00
76878;DHT22;65843;50.692;12.844;2023-03-23T06:10:44;19.30;54.10
76878;DHT22;65843;50.692;12.844;2023-03-23T06:11:45;19.40;53.60
76878;DHT22;65843;50.692;12.844;2023-03-23T06:12:46;19.50;53.80
76878;DHT22;65843;50.692;12.844;2023-03-23T06:13:47;19.50;54.20
76878;DHT22;65843;50.692;12.844;2023-03-23T06:14:48;19.60;54.10
76878;DHT22;65843;50.692;12.844;2023-03-23T06:15:49;19.60;53.80
76878;DHT22;65843;50.692;12.844;2023-03-23T06:16:50;19.70;54.00
76878;DHT22;65843;50.692;12.844;2023-03-23T06:17:51;19.70;53.80
76878;DHT22;65843;50.692;12.844;2023-03-23T06:18:56;19.70;53.40
76878;DHT22;65843;50.692;12.844;2023-03-23T06:19:57;19.70;53.30
76878;DHT22;65843;50.692;12.844;2023-03-23T06:20:58;19.80;52.40
76878;DHT22;65843;50.692;12.844;2023-03-23T06:21:59;19.80;52.80
76878;DHT22;65843;50.692;12.844;2023-03-23T06:23:02;19.80;52.60
76878;DHT22;65843;50.692;12.844;2023-03-23T06:24:04;19.90;52.00
76878;DHT22;65843;50.692;12.844;2023-03-23T06:25:06;19.90;52.10
76878;DHT22;65843;50.692;12.844;2023-03-23T06:26:07;19.90;52.40
76878;DHT22;65843;50.692;12.844;2023-03-23T06:27:08;19.90;51.90
76878;DHT22;65843;50.692;12.844;2023-03-23T06:28:10;19.90;52.90
76878;DHT22;65843;50.692;12.844;2023-03-23T06:29:11;19.90;52.30
76878;DHT22;65843;50.692;12.844;2023-03-23T06:30:12;19.90;52.80
76878;DHT22;65843;50.692;12.844;2023-03-23T06:31:15;19.90;53.20
76878;DHT22;65843;50.692;12.844;2023-03-23T06:32:18;19.90;53.00
76878;DHT22;65843;50.692;12.844;2023-03-23T06:33:19;19.90;52.40
76878;DHT22;65843;50.692;12.844;2023-03-23T06:34:20;19.90;52.40
76878;DHT22;65843;50.692;12.844;2023-03-23T06:35:21;19.90;52.80
76878;DHT22;65843;50.692;12.844;2023-03-23T06:36:22;19.90;53.10
76878;DHT22;65843;50.692;12.844;2023-03-23T06:37:23;19.90;53.10
76878;DHT22;65843;50.692;12.844;2023-03-23T06:38:25;19.90;52.90
76878;DHT22;65843;50.692;12.844;2023-03-23T06:39:27;19.90;53.00
76878;DHT22;65843;50.692;12.844;2023-03-23T06:40:28;19.90;53.00
76878;DHT22;65843;50.692;12.844;2023-03-23T06:41:29;20.00;52.90
76878;DHT22;65843;50.692;12.844;2023-03-23T06:42:32;20.00;53.00
76878;DHT22;65843;50.692;12.844;2023-03-23T06:43:34;20.00;52.80
76878;DHT22;65843;50.692;12.844;2023-03-23T06:44:38;20.00;52.80
76878;DHT22;65843;50.692;12.844;2023-03-23T06:45:39;20.00;52.60
76878;DHT22;65843;50.692;12.844;2023-03-23T06:46:41;20.00;52.50
76878;DHT22;65843;50.692;12.844;2023-03-23T06:47:42;20.00;52.50
76878;DHT22;65843;50.692;12.844;2023-03-23T06:48:44;20.00;52.30
76878;DHT22;65843;50.692;12.844;2023-03-23T06:49:45;20.00;51.60
76878;DHT22;65843;50.692;12.844;2023-03-23T06:50:46;20.00;52.30